Terminal Aerodrome Forecast
Issued by NWS Wilmington, OH

Current Version | Previous Version | Graphics & Text | Print | Product List | Glossary On
Versions: 1 2 3 4 5 6 7 8 9 10 11 12 13
000
FTUS41 KILN 301700
TAFDAY
TAF
KDAY 301732Z 3018/0118 01012G19KT P6SM VCSH SCT035
      TEMPO 3018/3020 BKN035
     FM302000 36011G17KT P6SM VCSH BKN035
     FM010000 36010KT P6SM BKN035
     FM010200 34010KT P6SM OVC015
     FM011000 01010KT P6SM SCT025
     FM011400 35011G19KT P6SM BKN035=

USA.gov is the U.S. government's official web portal to all federal, state and local government web resources and services.